createdAt,value
2023-02-28T00:01:28.627Z,5.15
2023-02-28T00:03:56.904Z,4.68
2023-02-28T00:06:25.514Z,4.97
2023-02-28T00:08:53.589Z,4.45
2023-02-28T00:11:23.129Z,8.55
2023-02-28T00:13:51.239Z,3.35
2023-02-28T00:16:20.580Z,4.82
2023-02-28T00:18:49.454Z,6.28
2023-02-28T00:21:18.326Z,4.70
2023-02-28T00:23:46.385Z,8.38
2023-02-28T00:26:14.519Z,4.70
2023-02-28T00:28:43.884Z,4.78
2023-02-28T00:31:11.990Z,6.68
2023-02-28T00:33:40.104Z,6.60
2023-02-28T00:36:10.218Z,4.75
2023-02-28T00:38:38.991Z,3.85
2023-02-28T00:41:08.112Z,4.68
2023-02-28T00:43:37.837Z,6.43
2023-02-28T00:46:08.287Z,4.75
2023-02-28T00:48:36.498Z,5.68
2023-02-28T00:51:04.814Z,9.57
2023-02-28T00:53:33.490Z,6.38
2023-02-28T00:56:01.554Z,8.80
2023-02-28T00:58:29.657Z,4.50
2023-02-28T01:00:57.731Z,5.65
2023-02-28T01:03:27.069Z,7.82
2023-02-28T01:05:55.038Z,4.50
2023-02-28T01:08:23.244Z,7.93
2023-02-28T01:10:51.441Z,6.88
2023-02-28T01:13:19.557Z,4.90
2023-02-28T01:15:52.005Z,4.93
2023-02-28T01:18:20.200Z,5.38
2023-02-28T01:20:49.687Z,5.30
2023-02-28T01:23:17.664Z,3.67
2023-02-28T01:25:53.030Z,6.15
2023-02-28T01:28:39.521Z,5.95
2023-02-28T01:31:13.834Z,6.63
2023-02-28T01:33:42.092Z,6.40
2023-02-28T01:36:13.249Z,4.18
2023-02-28T01:38:41.492Z,5.65
2023-02-28T01:41:10.522Z,5.07
2023-02-28T01:43:57.853Z,7.75
2023-02-28T01:46:26.030Z,5.10
2023-02-28T01:48:58.807Z,6.32
2023-02-28T01:51:32.697Z,6.00
2023-02-28T01:54:03.580Z,6.40
2023-02-28T01:56:36.240Z,4.82
2023-02-28T01:59:05.360Z,5.60
2023-02-28T02:01:33.662Z,6.43
2023-02-28T02:04:04.307Z,5.82
2023-02-28T02:06:39.121Z,3.50
2023-02-28T02:09:07.204Z,7.57
2023-02-28T02:11:37.865Z,5.65
2023-02-28T02:14:21.732Z,7.55
2023-02-28T02:17:02.167Z,4.85
2023-02-28T02:20:20.829Z,4.90
2023-02-28T02:23:23.187Z,6.70
2023-02-28T02:25:57.260Z,5.93
2023-02-28T02:28:57.667Z,9.25
2023-02-28T02:32:04.276Z,5.65
2023-02-28T02:35:05.538Z,6.80
2023-02-28T02:37:59.337Z,4.25
2023-02-28T02:40:33.712Z,5.88
2023-02-28T02:43:05.443Z,5.70
2023-02-28T02:45:38.150Z,5.97
2023-02-28T02:48:10.812Z,7.28
2023-02-28T02:50:45.142Z,8.07
2023-02-28T02:53:16.199Z,5.07
2023-02-28T02:55:53.962Z,5.47
2023-02-28T02:58:25.348Z,6.95
2023-02-28T03:00:56.961Z,6.57
2023-02-28T03:03:30.717Z,6.43
2023-02-28T03:06:02.358Z,7.60
2023-02-28T03:08:32.175Z,8.88
2023-02-28T03:11:03.852Z,6.82
2023-02-28T03:14:11.857Z,5.72
2023-02-28T03:16:56.275Z,8.05
2023-02-28T03:19:35.994Z,8.30
2023-02-28T03:22:21.875Z,4.10
2023-02-28T03:24:57.742Z,6.53
2023-02-28T03:27:30.282Z,7.40
2023-02-28T03:30:03.909Z,6.20
2023-02-28T03:32:57.484Z,6.72
2023-02-28T03:35:50.330Z,6.00
2023-02-28T03:38:43.151Z,7.07
2023-02-28T03:41:17.558Z,8.52
2023-02-28T03:43:51.352Z,5.38
2023-02-28T03:46:23.061Z,6.90
2023-02-28T03:48:57.707Z,7.10
2023-02-28T03:51:29.216Z,6.63
2023-02-28T03:54:04.201Z,5.15
2023-02-28T03:56:39.518Z,7.18
2023-02-28T03:59:15.123Z,8.07
2023-02-28T04:01:45.927Z,8.05
2023-02-28T04:04:15.385Z,6.22
2023-02-28T04:06:44.279Z,8.57
2023-02-28T04:09:16.017Z,8.30
2023-02-28T04:11:46.371Z,8.48
2023-02-28T04:14:14.495Z,6.82
2023-02-28T04:16:43.592Z,8.38
2023-02-28T04:19:14.105Z,6.85
2023-02-28T04:21:44.526Z,7.80
2023-02-28T04:24:15.963Z,7.53
2023-02-28T04:26:45.584Z,5.57
2023-02-28T04:29:15.014Z,7.13
2023-02-28T04:31:43.198Z,11.52
2023-02-28T04:34:11.337Z,6.03
2023-02-28T04:36:39.459Z,8.00
2023-02-28T04:39:07.517Z,6.38
2023-02-28T04:41:36.992Z,9.20
2023-02-28T04:44:05.298Z,8.07
2023-02-28T04:46:36.605Z,8.88
2023-02-28T04:49:04.896Z,8.67
2023-02-28T04:51:32.992Z,8.45
2023-02-28T04:54:01.034Z,13.25
2023-02-28T04:56:28.990Z,8.25
2023-02-28T04:58:58.436Z,7.88
2023-02-28T05:01:28.841Z,7.50
2023-02-28T05:03:59.297Z,10.90
2023-02-28T05:06:28.544Z,9.65
2023-02-28T05:08:57.471Z,11.70
2023-02-28T05:11:28.476Z,11.45
2023-02-28T05:13:58.424Z,10.73
2023-02-28T05:16:26.394Z,13.52
2023-02-28T05:18:55.352Z,9.88
2023-02-28T05:21:28.297Z,10.27
2023-02-28T05:23:58.018Z,11.93
2023-02-28T05:26:26.808Z,7.80
2023-02-28T05:28:55.691Z,11.18
2023-02-28T05:31:25.961Z,14.65
2023-02-28T05:33:54.248Z,15.00
2023-02-28T05:36:22.621Z,11.77
2023-02-28T05:38:51.388Z,16.98
2023-02-28T05:41:21.395Z,14.23
2023-02-28T05:43:49.858Z,16.67
2023-02-28T05:46:18.300Z,13.40
2023-02-28T05:48:49.253Z,16.50
2023-02-28T05:51:17.512Z,15.38
2023-02-28T05:53:45.573Z,13.18
2023-02-28T05:56:14.156Z,14.95
2023-02-28T05:58:42.168Z,13.00
2023-02-28T06:01:32.489Z,19.30
2023-02-28T06:04:02.798Z,14.70
2023-02-28T06:06:31.539Z,15.52
2023-02-28T06:08:59.756Z,15.77
2023-02-28T06:11:29.017Z,16.63
2023-02-28T06:13:57.963Z,16.73
2023-02-28T06:16:26.581Z,12.60
2023-02-28T06:18:56.966Z,19.00
2023-02-28T06:21:28.527Z,16.40
2023-02-28T06:23:58.082Z,19.20
2023-02-28T06:26:26.475Z,22.15
2023-02-28T06:28:54.759Z,17.42
2023-02-28T06:31:23.587Z,18.42
2023-02-28T06:33:52.012Z,21.02
2023-02-28T06:36:20.873Z,14.48
2023-02-28T06:38:55.498Z,18.30
2023-02-28T06:41:25.404Z,16.02
2023-02-28T06:43:54.014Z,17.88
2023-02-28T06:46:22.585Z,18.90
2023-02-28T06:48:50.807Z,15.05
2023-02-28T06:51:21.354Z,16.70
2023-02-28T06:53:50.734Z,17.20
2023-02-28T06:56:38.012Z,16.48
2023-02-28T06:59:06.541Z,16.70
2023-02-28T07:01:34.752Z,16.65
2023-02-28T07:04:02.952Z,23.73
2023-02-28T07:06:30.944Z,18.80
2023-02-28T07:09:01.385Z,17.52
2023-02-28T07:11:30.857Z,21.13
2023-02-28T07:14:00.035Z,17.05
2023-02-28T07:16:28.161Z,16.58
2023-02-28T07:18:56.997Z,18.90
2023-02-28T07:21:25.300Z,18.48
2023-02-28T07:23:53.777Z,17.05
2023-02-28T07:26:23.279Z,15.75
2023-02-28T07:28:51.826Z,15.93
2023-02-28T07:31:20.508Z,18.92
2023-02-28T07:33:48.628Z,18.30
2023-02-28T07:36:19.661Z,14.63
2023-02-28T07:38:51.072Z,16.98
2023-02-28T07:41:20.913Z,18.17
2023-02-28T07:43:50.694Z,18.75
2023-02-28T07:46:21.284Z,29.30
2023-02-28T07:48:49.465Z,18.92
2023-02-28T07:51:17.710Z,21.02
2023-02-28T07:53:45.714Z,17.73
2023-02-28T07:56:13.882Z,16.13
2023-02-28T07:58:44.093Z,21.98
2023-02-28T08:01:14.409Z,17.90
2023-02-28T08:03:43.130Z,19.75
2023-02-28T08:06:19.233Z,23.60
2023-02-28T08:08:47.762Z,24.33
2023-02-28T08:11:17.259Z,20.38
2023-02-28T08:13:45.810Z,38.78
2023-02-28T08:16:23.011Z,18.45
2023-02-28T08:18:51.944Z,17.30
2023-02-28T08:21:21.001Z,14.95
2023-02-28T08:23:49.619Z,15.70
2023-02-28T08:26:17.840Z,18.15
2023-02-28T08:28:46.378Z,16.85
2023-02-28T08:31:17.690Z,18.88
2023-02-28T08:33:46.703Z,15.38
2023-02-28T08:36:16.053Z,16.17
2023-02-28T08:38:44.211Z,16.23
2023-02-28T08:41:13.988Z,16.67
2023-02-28T08:43:42.758Z,17.15
2023-02-28T08:46:13.636Z,17.60
2023-02-28T08:48:43.423Z,15.55
2023-02-28T08:51:13.544Z,19.20
2023-02-28T08:53:42.469Z,16.92
2023-02-28T08:56:12.237Z,13.93
2023-02-28T08:58:40.811Z,16.88
2023-02-28T09:01:14.047Z,17.38
2023-02-28T09:03:44.824Z,17.58
2023-02-28T09:06:13.622Z,16.27
2023-02-28T09:08:42.284Z,17.38
2023-02-28T09:11:11.146Z,17.15
2023-02-28T09:13:39.954Z,13.70
2023-02-28T09:16:10.869Z,15.38
2023-02-28T09:18:39.546Z,14.15
2023-02-28T09:21:12.404Z,12.85
2023-02-28T09:23:40.353Z,16.35
2023-02-28T09:26:16.784Z,16.05
2023-02-28T09:28:46.198Z,19.52
2023-02-28T09:31:16.786Z,14.95
2023-02-28T09:33:45.261Z,18.33
2023-02-28T09:36:14.831Z,13.65
2023-02-28T09:38:43.646Z,16.77
2023-02-28T09:41:16.992Z,18.60
2023-02-28T09:43:49.558Z,20.77
2023-02-28T09:46:29.257Z,17.55
2023-02-28T09:48:58.898Z,19.45
2023-02-28T09:51:40.075Z,18.60
2023-02-28T09:54:08.312Z,15.10
2023-02-28T09:56:41.013Z,19.55
2023-02-28T09:59:19.733Z,18.95
2023-02-28T10:01:56.970Z,14.75
2023-02-28T10:04:40.980Z,20.30
2023-02-28T10:07:20.340Z,17.38
2023-02-28T10:09:52.278Z,14.68
2023-02-28T10:12:23.063Z,19.10
2023-02-28T10:14:54.963Z,22.45
2023-02-28T10:17:27.543Z,17.10
2023-02-28T10:25:05.994Z,17.48
2023-02-28T10:27:36.289Z,18.52
2023-02-28T10:30:05.496Z,17.85
2023-02-28T10:32:35.870Z,17.90
2023-02-28T10:35:17.094Z,18.13
2023-02-28T10:37:48.602Z,23.60
2023-02-28T10:40:31.093Z,15.82
2023-02-28T10:43:00.964Z,16.60
2023-02-28T10:45:31.122Z,18.40
2023-02-28T10:48:01.242Z,17.08
2023-02-28T10:50:44.478Z,22.00
2023-02-28T10:53:36.043Z,19.30
2023-02-28T10:56:22.207Z,17.65
2023-02-28T10:58:58.482Z,17.98
2023-02-28T11:01:36.436Z,25.55
2023-02-28T11:04:05.236Z,21.15
2023-02-28T11:06:36.246Z,19.40
2023-02-28T11:09:18.822Z,19.13
2023-02-28T11:14:22.449Z,19.40
2023-02-28T11:16:52.246Z,26.77
2023-02-28T11:19:26.131Z,26.95
2023-02-28T11:21:58.402Z,19.05
2023-02-28T11:24:34.173Z,31.88
2023-02-28T11:27:02.637Z,25.35
2023-02-28T11:29:37.006Z,19.08
2023-02-28T11:32:14.423Z,18.20
2023-02-28T11:34:46.368Z,27.27
2023-02-28T11:37:21.380Z,24.70
2023-02-28T11:39:58.209Z,24.85
2023-02-28T11:42:52.934Z,21.65
2023-02-28T11:45:34.584Z,20.03
2023-02-28T11:48:16.608Z,19.30
2023-02-28T11:51:03.308Z,18.00
2023-02-28T11:54:05.243Z,18.58
2023-02-28T11:56:41.853Z,17.90
2023-02-28T11:59:33.906Z,17.40
2023-02-28T12:02:33.452Z,17.25
2023-02-28T12:05:37.672Z,18.63
2023-02-28T12:08:19.654Z,19.40
2023-02-28T12:11:05.195Z,17.47
2023-02-28T12:13:53.981Z,21.95
2023-02-28T12:16:56.072Z,21.13
2023-02-28T12:19:36.095Z,21.92
2023-02-28T12:22:34.090Z,18.90
2023-02-28T12:25:54.148Z,18.00
2023-02-28T12:28:36.696Z,17.77
2023-02-28T12:31:21.751Z,18.73
2023-02-28T12:34:04.247Z,17.65
2023-02-28T12:36:43.013Z,16.20
2023-02-28T12:39:23.977Z,17.85
2023-02-28T12:44:56.167Z,16.67
2023-02-28T12:47:26.705Z,16.85
2023-02-28T12:50:10.072Z,16.95
2023-02-28T12:53:02.815Z,19.02
2023-02-28T12:55:46.314Z,20.33
2023-02-28T12:58:46.007Z,14.85
2023-02-28T13:02:05.649Z,19.77
2023-02-28T13:05:38.352Z,20.88
2023-02-28T13:11:42.657Z,15.93
2023-02-28T13:14:34.096Z,17.38
2023-02-28T13:17:22.901Z,17.50
2023-02-28T13:20:09.388Z,23.73
2023-02-28T13:22:53.232Z,18.27
2023-02-28T13:26:11.997Z,15.38
2023-02-28T13:29:06.866Z,17.30
2023-02-28T13:32:23.726Z,17.52
2023-02-28T13:35:40.239Z,20.38
2023-02-28T13:38:28.821Z,17.88
2023-02-28T13:41:44.264Z,20.33
2023-02-28T13:44:25.394Z,18.30
2023-02-28T13:47:40.734Z,19.05
2023-02-28T13:50:36.893Z,17.27
2023-02-28T13:53:53.532Z,14.35
2023-02-28T13:56:58.904Z,17.45
2023-02-28T13:59:39.272Z,18.60
2023-02-28T14:02:42.121Z,13.38
2023-02-28T14:05:19.107Z,21.27
2023-02-28T14:07:52.838Z,17.50
2023-02-28T14:10:37.816Z,14.80
2023-02-28T14:13:25.930Z,21.55
2023-02-28T14:16:03.974Z,17.08
2023-02-28T14:19:00.203Z,15.73
2023-02-28T14:21:35.427Z,15.60
2023-02-28T14:24:49.744Z,21.13
2023-02-28T14:27:48.295Z,16.42
2023-02-28T14:30:57.962Z,15.77
2023-02-28T14:33:51.839Z,16.85
2023-02-28T14:36:37.226Z,15.48
2023-02-28T14:39:19.474Z,17.80
2023-02-28T14:41:55.956Z,18.05
2023-02-28T14:44:45.783Z,17.55
2023-02-28T14:47:34.205Z,19.30
2023-02-28T14:50:15.515Z,17.30
2023-02-28T14:52:57.255Z,19.10
2023-02-28T14:55:36.440Z,21.00
2023-02-28T14:58:28.505Z,18.90
2023-02-28T15:01:09.651Z,21.80
2023-02-28T15:03:48.840Z,21.45
2023-02-28T15:06:40.115Z,19.67
2023-02-28T15:09:24.999Z,21.15
2023-02-28T15:12:01.523Z,18.02
2023-02-28T15:14:31.498Z,19.10
2023-02-28T15:17:15.318Z,19.17
2023-02-28T15:19:57.310Z,17.88
2023-02-28T15:22:32.257Z,20.52
2023-02-28T15:25:07.004Z,16.83
2023-02-28T15:27:47.321Z,31.35
2023-02-28T15:30:35.479Z,19.20
2023-02-28T15:33:31.947Z,20.13
2023-02-28T15:36:31.075Z,18.90
2023-02-28T15:39:16.133Z,22.55
2023-02-28T15:42:04.470Z,20.17
2023-02-28T15:44:51.856Z,21.15
2023-02-28T15:47:34.691Z,19.02
2023-02-28T15:50:42.375Z,18.80
2023-02-28T15:53:45.791Z,17.67
2023-02-28T16:00:02.236Z,19.23
2023-02-28T16:02:35.321Z,16.45
2023-02-28T16:05:55.299Z,20.73
2023-02-28T16:08:47.002Z,23.25
2023-02-28T16:11:27.231Z,20.95
2023-02-28T16:14:04.911Z,19.75
2023-02-28T16:16:53.963Z,18.90
2023-02-28T16:19:59.854Z,18.93
2023-02-28T16:22:37.263Z,17.33
2023-02-28T16:25:41.081Z,16.27
2023-02-28T16:28:23.240Z,20.42
2023-02-28T16:31:30.554Z,17.42
2023-02-28T16:34:14.146Z,18.52
2023-02-28T16:37:09.975Z,17.30
2023-02-28T16:39:51.946Z,49.78
2023-02-28T16:42:35.522Z,23.60
2023-02-28T16:45:24.016Z,25.92
2023-02-28T16:47:59.682Z,24.35
2023-02-28T16:50:40.281Z,21.90
2023-02-28T16:53:17.662Z,21.25
2023-02-28T16:55:56.601Z,23.35
2023-02-28T16:58:42.345Z,22.83
2023-02-28T17:01:26.930Z,22.30
2023-02-28T17:03:58.583Z,21.15
2023-02-28T17:06:35.182Z,20.48
2023-02-28T17:09:24.606Z,21.30
2023-02-28T17:12:09.286Z,22.00
2023-02-28T17:14:52.086Z,25.70
2023-02-28T17:17:33.784Z,23.67
2023-02-28T17:20:19.407Z,23.27
2023-02-28T17:22:55.512Z,21.58
2023-02-28T17:25:31.743Z,23.58
2023-02-28T17:28:12.724Z,23.50
2023-02-28T17:31:03.179Z,21.85
2023-02-28T17:33:40.253Z,24.02
2023-02-28T17:36:20.546Z,21.92
2023-02-28T17:39:18.391Z,22.13
2023-02-28T17:41:51.156Z,23.10
2023-02-28T17:44:22.853Z,22.27
2023-02-28T17:46:58.406Z,22.65
2023-02-28T17:49:40.307Z,20.52
2023-02-28T17:52:16.504Z,22.85
2023-02-28T17:54:47.062Z,22.23
2023-02-28T17:57:19.284Z,25.15
2023-02-28T17:59:55.531Z,28.90
2023-02-28T18:02:31.012Z,22.48
2023-02-28T18:05:07.237Z,21.73
2023-02-28T18:07:37.500Z,26.38
2023-02-28T18:10:22.431Z,24.80
2023-02-28T18:12:53.193Z,24.83
2023-02-28T18:15:28.574Z,24.27
2023-02-28T18:18:01.774Z,23.63
2023-02-28T18:20:32.208Z,25.73
2023-02-28T18:23:02.788Z,21.35
2023-02-28T18:25:33.835Z,23.23
2023-02-28T18:28:05.880Z,23.02
2023-02-28T18:30:40.904Z,25.35
2023-02-28T18:33:14.295Z,25.10
2023-02-28T18:35:46.177Z,20.77
2023-02-28T18:38:24.070Z,22.48
2023-02-28T18:41:06.062Z,21.70
2023-02-28T18:43:37.057Z,25.55
2023-02-28T18:46:06.658Z,26.95
2023-02-28T18:48:38.365Z,22.92
2023-02-28T18:51:13.362Z,21.63
2023-02-28T18:53:50.774Z,22.75
2023-02-28T18:56:32.257Z,26.33
2023-02-28T18:59:02.607Z,22.35
2023-02-28T19:01:36.669Z,25.45
2023-02-28T19:04:14.059Z,23.42
2023-02-28T19:06:48.478Z,24.02
2023-02-28T19:09:20.892Z,35.92
2023-02-28T19:11:50.214Z,33.15
2023-02-28T19:14:22.575Z,23.05
2023-02-28T19:16:52.551Z,31.00
2023-02-28T19:19:26.301Z,30.63
2023-02-28T19:21:57.494Z,28.70
2023-02-28T19:24:26.217Z,26.25
2023-02-28T19:26:55.366Z,30.55
2023-02-28T19:29:24.335Z,28.13
2023-02-28T19:31:55.154Z,24.10
2023-02-28T19:34:25.316Z,29.00
2023-02-28T19:36:59.096Z,41.50
2023-02-28T19:39:27.734Z,29.13
2023-02-28T19:41:56.285Z,29.58
2023-02-28T19:44:24.877Z,26.15
2023-02-28T19:46:54.587Z,29.48
2023-02-28T19:49:26.912Z,25.35
2023-02-28T19:51:58.780Z,30.40
2023-02-28T19:58:03.749Z,43.95
2023-02-28T20:00:32.603Z,29.70
2023-02-28T20:03:04.456Z,48.50
2023-02-28T20:05:35.253Z,47.13
2023-02-28T20:08:05.543Z,49.55
2023-02-28T20:10:37.072Z,44.53
2023-02-28T20:13:05.934Z,37.65
2023-02-28T20:15:34.897Z,38.95
2023-02-28T20:18:06.515Z,37.60
2023-02-28T20:20:39.681Z,45.17
2023-02-28T20:23:15.130Z,41.55
2023-02-28T20:25:45.176Z,34.20
2023-02-28T20:28:19.040Z,33.42
2023-02-28T20:30:49.145Z,33.20
2023-02-28T20:33:19.870Z,32.83
2023-02-28T20:35:55.354Z,32.47
2023-02-28T20:38:33.501Z,40.05
2023-02-28T20:41:10.368Z,36.40
2023-02-28T20:43:42.269Z,43.47
2023-02-28T20:46:14.343Z,38.17
2023-02-28T20:48:44.727Z,34.40
2023-02-28T20:51:20.473Z,32.88
2023-02-28T20:53:51.496Z,33.30
2023-02-28T20:56:25.812Z,31.30
2023-02-28T20:58:58.202Z,32.65
2023-02-28T21:01:31.600Z,29.63
2023-02-28T21:04:02.118Z,42.05
2023-02-28T21:06:37.226Z,49.85
2023-02-28T21:09:07.865Z,45.78
2023-02-28T21:11:37.816Z,36.90
2023-02-28T21:14:08.524Z,35.15
2023-02-28T21:16:38.227Z,28.67
2023-02-28T21:19:10.844Z,31.63
2023-02-28T21:24:12.506Z,30.70
2023-02-28T21:26:41.941Z,33.05
2023-02-28T21:29:10.373Z,35.60
2023-02-28T21:31:39.597Z,35.88
2023-02-28T21:34:10.134Z,35.15
2023-02-28T21:36:41.854Z,34.35
2023-02-28T21:39:16.218Z,33.33
2023-02-28T21:41:44.759Z,31.08
2023-02-28T21:44:18.868Z,33.05
2023-02-28T21:46:51.117Z,35.20
2023-02-28T21:49:19.690Z,30.58
2023-02-28T21:51:49.496Z,30.75
2023-02-28T21:54:18.242Z,31.67
2023-02-28T21:56:48.719Z,33.30
2023-02-28T21:59:17.167Z,35.05
2023-02-28T22:01:46.581Z,35.03
2023-02-28T22:04:21.257Z,36.53
2023-02-28T22:06:53.770Z,33.17
2023-02-28T22:09:22.976Z,34.63
2023-02-28T22:11:53.567Z,30.70
2023-02-28T22:14:22.162Z,34.13
2023-02-28T22:16:54.896Z,32.70
2023-02-28T22:19:25.198Z,31.52
2023-02-28T22:21:59.520Z,28.65
2023-02-28T22:24:33.149Z,28.95
2023-02-28T22:27:01.623Z,30.63
2023-02-28T22:29:33.071Z,29.27
2023-02-28T22:32:01.732Z,30.45
2023-02-28T22:34:32.690Z,28.20
2023-02-28T22:37:02.854Z,32.40
2023-02-28T22:39:33.543Z,35.53
2023-02-28T22:42:01.984Z,30.35
2023-02-28T22:44:30.332Z,30.27
2023-02-28T22:47:01.163Z,32.55
2023-02-28T22:49:29.907Z,28.80
2023-02-28T22:51:58.033Z,28.20
2023-02-28T22:54:30.895Z,31.98
2023-02-28T22:56:59.206Z,28.58
2023-02-28T22:59:27.470Z,33.13
2023-02-28T23:01:58.685Z,29.15
2023-02-28T23:04:27.162Z,34.08
2023-02-28T23:06:55.557Z,29.27
2023-02-28T23:09:29.213Z,30.83
2023-02-28T23:12:01.802Z,34.95
2023-02-28T23:14:30.287Z,35.50
2023-02-28T23:17:01.250Z,31.13
2023-02-28T23:19:31.734Z,32.03
2023-02-28T23:22:02.782Z,31.83
2023-02-28T23:24:32.740Z,28.83
2023-02-28T23:27:04.535Z,28.40
2023-02-28T23:29:33.244Z,27.98
2023-02-28T23:32:05.687Z,27.95
2023-02-28T23:34:34.156Z,30.95
2023-02-28T23:37:05.485Z,29.80
2023-02-28T23:39:34.286Z,33.42
2023-02-28T23:42:04.157Z,30.45
2023-02-28T23:44:32.843Z,33.47
2023-02-28T23:47:03.150Z,32.25
2023-02-28T23:49:31.613Z,29.10
2023-02-28T23:52:00.157Z,32.88
2023-02-28T23:54:30.931Z,30.75
2023-02-28T23:56:59.595Z,28.23
2023-02-28T23:59:31.470Z,31.08
